createdAt,value
2019-04-29T00:00:40.813Z,99427.35
2019-04-29T00:03:14.746Z,99427.35
2019-04-29T00:05:47.662Z,99432.11
2019-04-29T00:08:22.045Z,99440.31
2019-04-29T00:10:54.737Z,99437.22
2019-04-29T00:13:28.979Z,99439.16
2019-04-29T00:16:12.667Z,99433.45
2019-04-29T00:19:00.735Z,99432.44
2019-04-29T00:21:33.290Z,99432.11
2019-04-29T00:24:05.816Z,99400.96
2019-04-29T00:26:38.492Z,99400.96
2019-04-29T00:29:11.279Z,99435.58
2019-04-29T00:31:44.596Z,99436.73
2019-04-29T00:34:17.396Z,99440.98
2019-04-29T00:37:08.297Z,99439.84
2019-04-29T00:39:58.584Z,99442.29
2019-04-29T00:42:44.824Z,99449.19
2019-04-29T00:45:16.815Z,99448.36
2019-04-29T00:47:49.466Z,99442.13
2019-04-29T00:50:21.253Z,99447.05
2019-04-29T00:52:53.609Z,99436.37
2019-04-29T00:55:34.833Z,99436.52
2019-04-29T00:58:06.484Z,99435.07
2019-04-29T01:00:42.301Z,99438.67
2019-04-29T01:03:14.665Z,99437.53
2019-04-29T01:05:51.519Z,99437.53
2019-04-29T01:08:24.302Z,99439.83
2019-04-29T01:10:57.306Z,99444.23
2019-04-29T01:13:30.015Z,99418.45
2019-04-29T01:16:02.381Z,99418.45
2019-04-29T01:18:34.860Z,99463.39
2019-04-29T01:21:07.294Z,99463.39
2019-04-29T01:23:41.305Z,99459.13
2019-04-29T01:26:15.307Z,99449.09
2019-04-29T01:28:51.036Z,99437.28
2019-04-29T01:31:30.543Z,99437.28
2019-04-29T01:34:04.105Z,99454.66
2019-04-29T01:36:38.298Z,99458.39
2019-04-29T01:39:14.058Z,99453.78
2019-04-29T01:41:48.685Z,99446.55
2019-04-29T01:44:22.767Z,99446.34
2019-04-29T01:46:56.676Z,99444.56
2019-04-29T01:49:29.778Z,99459.28
2019-04-29T01:52:02.447Z,99455.14
2019-04-29T01:54:34.812Z,99453.77
2019-04-29T01:57:07.441Z,99456.73
2019-04-29T01:59:41.656Z,99455.42
2019-04-29T02:02:14.288Z,99460.48
2019-04-29T02:04:46.653Z,99432.35
2019-04-29T02:07:19.109Z,99432.35
2019-04-29T02:09:53.282Z,99463.51
2019-04-29T02:12:25.661Z,99459.40
2019-04-29T02:14:58.022Z,99459.40
2019-04-29T02:17:30.438Z,99464.11
2019-04-29T02:20:02.799Z,99464.59
2019-04-29T02:22:37.131Z,99469.31
2019-04-29T02:25:15.284Z,99463.90
2019-04-29T02:27:47.582Z,99436.53
2019-04-29T02:30:47.654Z,99436.53
2019-04-29T02:33:20.286Z,99463.02
2019-04-29T02:35:52.607Z,99463.58
2019-04-29T02:38:26.822Z,99463.58
2019-04-29T02:41:05.295Z,99468.63
2019-04-29T02:43:39.311Z,99467.32
2019-04-29T02:46:12.039Z,99466.49
2019-04-29T02:48:44.820Z,99461.20
2019-04-29T02:51:19.332Z,99467.63
2019-04-29T02:53:51.733Z,99461.55
2019-04-29T02:56:24.377Z,99461.63
2019-04-29T02:58:58.566Z,99449.25
2019-04-29T03:01:32.059Z,99449.25
2019-04-29T03:04:09.293Z,99454.08
2019-04-29T03:06:42.309Z,99449.31
2019-04-29T03:09:14.274Z,99447.95
2019-04-29T03:11:46.676Z,99444.02
2019-04-29T03:14:19.298Z,99448.70
2019-04-29T03:16:52.277Z,99440.62
2019-04-29T03:19:26.312Z,99440.97
2019-04-29T03:22:00.573Z,99442.23
2019-04-29T03:24:34.417Z,99442.23
2019-04-29T03:27:07.327Z,99450.72
2019-04-29T03:29:39.730Z,99448.03
2019-04-29T03:32:12.261Z,99448.03
2019-04-29T03:34:44.546Z,99446.54
2019-04-29T03:37:17.404Z,99448.34
2019-04-29T03:39:50.201Z,99449.52
2019-04-29T03:42:22.644Z,99455.97
2019-04-29T03:44:55.300Z,99461.25
2019-04-29T03:47:27.336Z,99455.59
2019-04-29T03:50:01.316Z,99454.22
2019-04-29T03:52:33.700Z,99454.22
2019-04-29T03:55:06.991Z,99454.11
2019-04-29T03:57:39.325Z,99449.23
2019-04-29T04:00:17.429Z,99451.66
2019-04-29T04:03:00.365Z,99451.45
2019-04-29T04:05:32.508Z,99442.13
2019-04-29T04:08:22.728Z,99442.13
2019-04-29T04:10:55.287Z,99450.99
2019-04-29T04:13:27.704Z,99450.86
2019-04-29T04:16:00.343Z,99450.86
2019-04-29T04:18:34.406Z,99458.47
2019-04-29T04:21:07.036Z,99458.47
2019-04-29T04:23:39.762Z,99464.89
2019-04-29T04:26:12.755Z,99471.80
2019-04-29T04:28:45.282Z,99476.09
2019-04-29T04:31:17.603Z,99456.47
2019-04-29T04:33:53.797Z,99456.47
2019-04-29T04:36:35.284Z,99479.58
2019-04-29T04:39:10.287Z,99477.89
2019-04-29T04:41:42.760Z,99476.83
2019-04-29T04:44:15.283Z,99476.83
2019-04-29T04:46:47.653Z,99485.17
2019-04-29T04:49:20.290Z,99485.17
2019-04-29T04:51:55.319Z,99486.94
2019-04-29T04:54:31.323Z,99483.25
2019-04-29T04:57:02.299Z,99483.25
2019-04-29T04:59:34.841Z,99487.66
2019-04-29T05:02:07.367Z,99487.66
2019-04-29T05:04:39.812Z,99488.48
2019-04-29T05:07:12.717Z,99498.72
2019-04-29T05:09:46.628Z,99491.13
2019-04-29T05:12:19.092Z,99491.13
2019-04-29T05:14:51.568Z,99501.02
2019-04-29T05:17:24.088Z,99500.92
2019-04-29T05:19:56.559Z,99504.74
2019-04-29T05:22:35.326Z,99502.66
2019-04-29T05:25:11.710Z,99501.38
2019-04-29T05:27:44.033Z,99495.20
2019-04-29T05:30:16.555Z,99498.02
2019-04-29T05:32:49.108Z,99501.66
2019-04-29T05:35:26.456Z,99505.92
2019-04-29T05:38:06.825Z,99512.66
2019-04-29T05:40:44.079Z,99515.95
2019-04-29T05:43:17.265Z,99519.22
2019-04-29T05:45:52.477Z,99517.41
2019-04-29T05:48:27.557Z,99517.41
2019-04-29T05:51:06.264Z,99523.48
2019-04-29T05:53:43.287Z,99502.16
2019-04-29T05:56:15.787Z,99517.59
2019-04-29T05:58:48.475Z,99517.59
2019-04-29T06:01:23.308Z,99525.62
2019-04-29T06:03:55.817Z,99529.86
2019-04-29T06:06:28.769Z,99529.86
2019-04-29T06:09:01.331Z,99536.69
2019-04-29T06:11:35.467Z,99529.26
2019-04-29T06:14:09.011Z,99527.80
2019-04-29T06:16:45.095Z,99525.69
2019-04-29T06:19:17.759Z,99531.20
2019-04-29T06:21:50.358Z,99535.58
2019-04-29T06:24:22.806Z,99528.26
2019-04-29T06:26:55.282Z,99528.26
2019-04-29T06:29:27.582Z,99521.89
2019-04-29T06:32:00.343Z,99521.89
2019-04-29T06:34:35.617Z,99513.86
2019-04-29T06:37:07.298Z,99513.86
2019-04-29T06:39:39.713Z,99538.88
2019-04-29T06:42:15.452Z,99545.34
2019-04-29T06:44:49.109Z,99545.34
2019-04-29T06:47:22.416Z,99554.49
2019-04-29T06:49:56.310Z,99545.11
2019-04-29T06:52:28.750Z,99530.16
2019-04-29T06:55:01.452Z,99530.16
2019-04-29T06:57:34.419Z,99554.64
2019-04-29T07:00:09.296Z,99550.19
2019-04-29T07:02:45.502Z,99548.92
2019-04-29T07:05:18.084Z,99548.92
2019-04-29T07:07:50.679Z,99549.82
2019-04-29T07:10:27.112Z,99543.06
2019-04-29T07:13:00.316Z,99555.53
2019-04-29T07:15:33.335Z,99550.86
2019-04-29T07:18:06.286Z,99544.09
2019-04-29T07:20:38.874Z,99521.06
2019-04-29T07:23:11.290Z,99521.06
2019-04-29T07:25:45.627Z,99533.63
2019-04-29T07:28:35.346Z,99533.63
2019-04-29T07:31:10.229Z,99558.93
2019-04-29T07:33:44.283Z,99545.77
2019-04-29T07:36:18.719Z,99522.08
2019-04-29T07:38:53.486Z,99522.08
2019-04-29T07:41:44.292Z,99535.05
2019-04-29T07:44:18.369Z,99526.63
2019-04-29T07:46:59.139Z,99526.63
2019-04-29T07:49:29.849Z,99541.72
2019-04-29T07:52:02.357Z,99539.41
2019-04-29T07:54:34.744Z,99537.17
2019-04-29T07:57:12.350Z,99547.08
2019-04-29T07:59:44.312Z,99539.39
2019-04-29T08:02:16.978Z,99538.01
2019-04-29T08:04:50.893Z,99538.01
2019-04-29T08:07:25.713Z,99539.77
2019-04-29T08:09:58.502Z,99543.77
2019-04-29T08:12:35.346Z,99536.50
2019-04-29T08:15:14.399Z,99524.73
2019-04-29T08:17:47.258Z,99524.73
2019-04-29T08:20:20.296Z,99540.39
2019-04-29T08:22:53.022Z,99546.73
2019-04-29T08:25:26.028Z,99546.73
2019-04-29T08:27:59.645Z,99544.81
2019-04-29T08:30:32.306Z,99541.59
2019-04-29T08:33:07.530Z,99540.65
2019-04-29T08:35:39.282Z,99540.65
2019-04-29T08:38:11.846Z,99513.63
2019-04-29T08:40:45.079Z,99513.63
2019-04-29T08:43:27.552Z,99547.44
2019-04-29T08:46:02.386Z,99538.46
2019-04-29T08:48:34.982Z,99536.86
2019-04-29T08:51:07.380Z,99543.19
2019-04-29T08:53:39.692Z,99543.39
2019-04-29T08:56:12.457Z,99543.39
2019-04-29T08:59:45.429Z,99544.21
2019-04-29T09:02:33.207Z,99547.47
2019-04-29T09:04:53.788Z,99542.82
2019-04-29T09:07:26.484Z,99542.61
2019-04-29T09:10:01.672Z,99546.25
2019-04-29T09:12:34.690Z,99541.70
2019-04-29T09:15:12.340Z,99539.73
2019-04-29T09:17:44.850Z,99544.54
2019-04-29T09:20:18.291Z,99542.02
2019-04-29T09:23:01.121Z,99536.19
2019-04-29T09:25:41.343Z,99532.70
2019-04-29T09:28:22.393Z,99533.45
2019-04-29T09:30:51.823Z,99529.98
2019-04-29T09:33:25.526Z,99528.77
2019-04-29T09:35:57.888Z,99521.67
2019-04-29T09:38:32.451Z,99527.73
2019-04-29T09:43:59.295Z,99517.77
2019-04-29T09:46:35.504Z,99515.70
2019-04-29T09:49:10.040Z,99521.06
2019-04-29T09:51:43.022Z,99516.09
2019-04-29T09:54:16.257Z,99514.36
2019-04-29T09:56:48.850Z,99509.16
2019-04-29T09:59:31.522Z,99509.16
2019-04-29T10:02:21.660Z,99505.91
2019-04-29T10:04:56.629Z,99506.80
2019-04-29T10:07:28.302Z,99505.40
2019-04-29T10:10:02.351Z,99502.77
2019-04-29T10:12:35.263Z,99495.62
2019-04-29T10:15:09.886Z,99489.12
2019-04-29T10:17:45.839Z,99496.59
2019-04-29T10:20:40.378Z,99494.38
2019-04-29T10:23:13.403Z,99485.80
2019-04-29T10:25:46.055Z,99485.80
2019-04-29T10:28:18.766Z,99483.33
2019-04-29T10:30:51.530Z,99480.55
2019-04-29T10:33:26.925Z,99476.39
2019-04-29T10:35:59.578Z,99468.88
2019-04-29T10:38:40.398Z,99467.70
2019-04-29T10:41:18.460Z,99464.27
2019-04-29T10:44:09.101Z,99464.27
2019-04-29T10:47:04.195Z,99458.16
2019-04-29T10:49:49.429Z,99461.02
2019-04-29T10:52:21.028Z,99458.41
2019-04-29T10:54:56.585Z,99449.38
2019-04-29T10:57:31.429Z,99447.98
2019-04-29T11:00:21.748Z,99452.83
2019-04-29T11:02:54.308Z,99451.61
2019-04-29T11:05:30.873Z,99439.26
2019-04-29T11:08:08.411Z,99439.26
2019-04-29T11:10:41.393Z,99438.23
2019-04-29T11:13:15.868Z,99443.51
2019-04-29T11:15:49.436Z,99433.78
2019-04-29T11:18:25.052Z,99426.69
2019-04-29T11:20:57.755Z,99422.42
2019-04-29T11:23:37.282Z,99419.94
2019-04-29T11:26:11.511Z,99416.55
2019-04-29T11:28:51.291Z,99409.86
2019-04-29T11:31:24.293Z,99414.83
2019-04-29T11:34:05.512Z,99405.58
2019-04-29T11:36:38.930Z,99405.58
2019-04-29T11:39:13.790Z,99411.36
2019-04-29T11:41:50.145Z,99408.72
2019-04-29T11:44:26.459Z,99398.70
2019-04-29T11:46:58.015Z,99397.38
2019-04-29T11:49:32.304Z,99394.06
2019-04-29T11:52:09.619Z,99374.36
2019-04-29T11:54:39.319Z,99374.36
2019-04-29T11:57:13.598Z,99382.75
2019-04-29T12:00:05.284Z,99384.20
2019-04-29T12:02:45.850Z,99378.83
2019-04-29T12:05:19.877Z,99365.64
2019-04-29T12:07:52.310Z,99365.64
2019-04-29T12:10:26.131Z,99364.97
2019-04-29T12:13:00.407Z,99364.97
2019-04-29T12:15:40.528Z,99389.51
2019-04-29T12:18:14.741Z,99384.70
2019-04-29T12:20:50.281Z,99377.84
2019-04-29T12:23:54.849Z,99356.17
2019-04-29T12:26:28.463Z,99356.17
2019-04-29T12:29:01.058Z,99376.42
2019-04-29T12:31:38.393Z,99376.36
2019-04-29T12:34:11.048Z,99377.80
2019-04-29T12:36:55.925Z,99368.73
2019-04-29T12:39:43.138Z,99366.34
2019-04-29T12:42:31.358Z,99364.23
2019-04-29T12:45:26.703Z,99364.23
2019-04-29T12:48:00.237Z,99373.11
2019-04-29T12:50:33.353Z,99359.46
2019-04-29T12:53:06.320Z,99353.09
2019-04-29T12:55:49.027Z,99355.72
2019-04-29T12:58:19.253Z,99350.92
2019-04-29T13:00:59.906Z,99341.86
2019-04-29T13:03:39.457Z,99341.86
2019-04-29T13:06:23.231Z,99342.38
2019-04-29T13:08:55.079Z,99342.38
2019-04-29T13:11:37.493Z,99346.31
2019-04-29T13:14:04.608Z,99340.59
2019-04-29T13:16:55.367Z,99334.60
2019-04-29T13:19:30.962Z,99336.95
2019-04-29T13:22:03.659Z,99334.20
2019-04-29T13:24:38.486Z,99340.81
2019-04-29T13:27:16.346Z,99323.58
2019-04-29T13:29:50.016Z,99321.69
2019-04-29T13:32:25.340Z,99321.69
2019-04-29T13:35:00.295Z,99324.94
2019-04-29T13:37:34.402Z,99321.86
2019-04-29T13:40:10.456Z,99278.78
2019-04-29T13:42:48.709Z,99278.78
2019-04-29T13:45:24.878Z,99309.59
2019-04-29T13:48:07.097Z,99311.97
2019-04-29T13:51:01.304Z,99300.28
2019-04-29T13:53:34.099Z,99263.54
2019-04-29T13:56:11.753Z,99263.54
2019-04-29T13:58:41.401Z,99292.28
2019-04-29T14:02:36.657Z,99287.23
2019-04-29T14:05:15.291Z,99293.05
2019-04-29T14:07:48.675Z,99271.16
2019-04-29T14:10:22.313Z,99271.16
2019-04-29T14:13:09.227Z,99279.02
2019-04-29T14:15:33.985Z,99279.89
2019-04-29T14:18:06.854Z,99278.55
2019-04-29T14:20:39.417Z,99268.40
2019-04-29T14:23:11.804Z,99270.09
2019-04-29T14:25:46.793Z,99273.31
2019-04-29T14:28:19.624Z,99263.34
2019-04-29T14:30:55.537Z,99264.44
2019-04-29T14:33:28.615Z,99263.43
2019-04-29T14:36:08.663Z,99269.22
2019-04-29T14:38:42.657Z,99258.80
2019-04-29T14:41:19.169Z,99258.59
2019-04-29T14:43:55.042Z,99260.95
2019-04-29T14:46:33.636Z,99266.30
2019-04-29T14:49:20.166Z,99275.34
2019-04-29T14:51:52.563Z,99262.19
2019-04-29T14:54:24.835Z,99272.75
2019-04-29T14:56:57.294Z,99275.63
2019-04-29T14:59:29.758Z,99275.50
2019-04-29T15:02:07.403Z,99275.50
2019-04-29T15:04:41.559Z,99275.44
2019-04-29T15:07:14.277Z,99286.44
2019-04-29T15:09:58.220Z,99296.41
2019-04-29T15:12:52.007Z,99302.00
2019-04-29T15:15:23.306Z,99302.00
2019-04-29T15:17:57.252Z,99305.22
2019-04-29T15:20:37.300Z,99308.02
2019-04-29T15:23:09.743Z,99301.59
2019-04-29T15:25:42.383Z,99301.59
2019-04-29T15:28:14.816Z,99302.11
2019-04-29T15:30:47.440Z,99302.79
2019-04-29T15:33:20.013Z,99296.65
2019-04-29T15:35:54.852Z,99292.12
2019-04-29T15:38:26.483Z,99287.16
2019-04-29T15:40:59.050Z,99291.72
2019-04-29T15:43:46.594Z,99284.54
2019-04-29T15:46:06.545Z,99281.02
2019-04-29T15:48:42.431Z,99276.77
2019-04-29T15:51:15.199Z,99276.77
2019-04-29T15:53:47.705Z,99278.05
2019-04-29T15:56:28.837Z,99278.05
2019-04-29T15:58:54.540Z,99274.50
2019-04-29T16:01:29.789Z,99270.70
2019-04-29T16:04:03.295Z,99275.92
2019-04-29T16:06:54.302Z,99276.87
2019-04-29T16:09:50.736Z,99273.16
2019-04-29T16:12:26.540Z,99273.16
2019-04-29T16:14:58.863Z,99278.81
2019-04-29T16:17:31.928Z,99279.73
2019-04-29T16:20:07.341Z,99284.02
2019-04-29T16:22:39.890Z,99272.09
2019-04-29T16:25:12.973Z,99268.91
2019-04-29T16:27:48.886Z,99270.18
2019-04-29T16:30:19.323Z,99274.41
2019-04-29T16:32:51.767Z,99274.41
2019-04-29T16:35:27.090Z,99286.09
2019-04-29T16:37:58.461Z,99283.76
2019-04-29T16:40:33.861Z,99293.20
2019-04-29T16:43:18.858Z,99300.48
2019-04-29T16:45:57.540Z,99295.61
2019-04-29T16:48:30.027Z,99295.25
2019-04-29T16:51:06.689Z,99294.42
2019-04-29T16:53:35.851Z,99296.48
2019-04-29T16:56:15.654Z,99298.97
2019-04-29T16:58:42.495Z,99296.31
2019-04-29T17:01:15.290Z,99296.09
2019-04-29T17:03:48.295Z,99299.77
2019-04-29T17:06:21.471Z,99305.48
2019-04-29T17:09:04.855Z,99299.63
2019-04-29T17:11:40.390Z,99305.05
2019-04-29T17:14:13.303Z,99305.64
2019-04-29T17:16:46.292Z,99305.64
2019-04-29T17:19:18.664Z,99311.39
2019-04-29T17:21:51.160Z,99311.39
2019-04-29T17:24:23.584Z,99312.41
2019-04-29T17:27:07.402Z,99316.95
2019-04-29T17:29:55.464Z,99315.00
2019-04-29T17:32:42.799Z,99315.59
2019-04-29T17:35:11.323Z,99316.64
2019-04-29T17:37:44.058Z,99316.95
2019-04-29T17:40:19.402Z,99318.56
2019-04-29T17:42:53.702Z,99323.58
2019-04-29T17:45:31.156Z,99319.30
2019-04-29T17:48:18.516Z,99322.06
2019-04-29T17:50:53.898Z,99322.06
2019-04-29T17:53:35.402Z,99323.59
2019-04-29T17:56:18.570Z,99319.80
2019-04-29T17:58:56.439Z,99327.85
2019-04-29T18:01:46.814Z,99324.48
2019-04-29T18:05:33.168Z,99330.78
2019-04-29T18:08:15.053Z,99334.43
2019-04-29T18:10:50.206Z,99332.77
2019-04-29T18:13:24.671Z,99332.34
2019-04-29T18:16:01.584Z,99333.88
2019-04-29T18:18:53.541Z,99338.13
2019-04-29T18:21:31.162Z,99308.30
2019-04-29T18:24:21.295Z,99308.30
2019-04-29T18:27:04.427Z,99340.02
2019-04-29T18:29:41.755Z,99342.02
2019-04-29T18:32:11.794Z,99342.02
2019-04-29T18:34:45.301Z,99346.37
2019-04-29T18:37:20.256Z,99349.72
2019-04-29T18:39:53.458Z,99347.33
2019-04-29T18:42:27.849Z,99347.72
2019-04-29T18:45:00.679Z,99347.72
2019-04-29T18:47:35.476Z,99351.48
2019-04-29T18:50:10.316Z,99350.66
2019-04-29T18:53:27.465Z,99349.05
2019-04-29T18:55:59.284Z,99360.44
2019-04-29T18:58:31.804Z,99359.81
2019-04-29T19:01:05.319Z,99363.08
2019-04-29T19:03:38.814Z,99360.08
2019-04-29T19:06:11.344Z,99364.09
2019-04-29T19:08:44.938Z,99369.09
2019-04-29T19:11:30.021Z,99372.93
2019-04-29T19:13:53.739Z,99372.61
2019-04-29T19:16:42.336Z,99369.98
2019-04-29T19:19:15.419Z,99370.91
2019-04-29T19:21:49.411Z,99370.03
2019-04-29T19:24:21.867Z,99356.78
2019-04-29T19:27:00.704Z,99356.78
2019-04-29T19:29:28.751Z,99370.09
2019-04-29T19:32:01.461Z,99372.87
2019-04-29T19:34:42.220Z,99373.19
2019-04-29T19:37:09.720Z,99367.42
2019-04-29T19:39:42.478Z,99368.78
2019-04-29T19:42:16.769Z,99363.55
2019-04-29T19:44:49.884Z,99371.09
2019-04-29T19:47:25.573Z,99366.56
2019-04-29T19:49:58.743Z,99370.47
2019-04-29T19:52:31.840Z,99367.75
2019-04-29T19:55:05.812Z,99371.66
2019-04-29T19:57:46.581Z,99367.59
2019-04-29T20:00:14.105Z,99362.56
2019-04-29T20:02:50.165Z,99362.56
2019-04-29T20:05:30.628Z,99362.23
2019-04-29T20:07:59.077Z,99358.66
2019-04-29T20:10:41.465Z,99362.89
2019-04-29T20:13:06.736Z,99365.53
2019-04-29T20:15:41.586Z,99361.53
2019-04-29T20:18:34.519Z,99355.14
2019-04-29T20:21:08.564Z,99352.13
2019-04-29T20:23:38.895Z,99352.95
2019-04-29T20:26:15.490Z,99348.30
2019-04-29T20:28:45.871Z,99342.70
2019-04-29T20:31:22.230Z,99349.24
2019-04-29T20:33:56.072Z,99342.66
2019-04-29T20:36:38.181Z,99341.62
2019-04-29T20:39:02.827Z,99345.41
2019-04-29T20:41:40.635Z,99345.41
2019-04-29T20:44:10.850Z,99327.69
2019-04-29T20:47:00.767Z,99325.80
2019-04-29T20:49:21.435Z,99327.12
2019-04-29T20:51:56.800Z,99324.60
2019-04-29T20:54:31.356Z,99321.80
2019-04-29T20:57:06.034Z,99321.47
2019-04-29T20:59:42.030Z,99316.02
2019-04-29T21:02:29.316Z,99318.41
2019-04-29T21:04:49.419Z,99313.55
2019-04-29T21:07:23.812Z,99309.67
2019-04-29T21:10:00.029Z,99307.16
2019-04-29T21:12:34.762Z,99307.16
2019-04-29T21:15:24.931Z,99305.84
2019-04-29T21:17:58.686Z,99307.83
2019-04-29T21:20:32.301Z,99299.55
2019-04-29T21:23:04.666Z,99295.80
2019-04-29T21:25:37.299Z,99295.80
2019-04-29T21:28:09.721Z,99296.53
2019-04-29T21:30:45.129Z,99296.53
2019-04-29T21:33:21.216Z,99296.04
2019-04-29T21:35:57.875Z,99259.30
2019-04-29T21:40:30.386Z,99282.80
2019-04-29T21:43:13.466Z,99285.81
2019-04-29T21:45:44.940Z,99285.81
2019-04-29T21:48:15.448Z,99289.51
2019-04-29T21:50:47.874Z,99278.75
2019-04-29T21:53:20.333Z,99277.05
2019-04-29T21:55:52.741Z,99260.50
2019-04-29T21:58:28.589Z,99260.50
2019-04-29T22:01:01.051Z,99271.16
2019-04-29T22:03:35.302Z,99269.14
2019-04-29T22:06:07.842Z,99259.88
2019-04-29T22:08:40.418Z,99259.88
2019-04-29T22:11:12.853Z,99268.52
2019-04-29T22:13:48.318Z,99278.38
2019-04-29T22:16:21.293Z,99264.52
2019-04-29T22:18:55.286Z,99266.21
2019-04-29T22:21:28.287Z,99266.21
2019-04-29T22:24:00.589Z,99231.63
2019-04-29T22:26:34.901Z,99231.63
2019-04-29T22:29:07.404Z,99267.77
2019-04-29T22:31:40.313Z,99267.00
2019-04-29T22:34:17.546Z,99262.87
2019-04-29T22:36:48.268Z,99262.87
2019-04-29T22:39:26.860Z,99267.94
2019-04-29T22:42:17.301Z,99274.91
2019-04-29T22:44:52.547Z,99282.84
2019-04-29T22:47:25.327Z,99278.45
2019-04-29T22:49:58.674Z,99279.78
2019-04-29T22:52:32.294Z,99272.80
2019-04-29T22:55:06.494Z,99262.87
2019-04-29T22:57:38.902Z,99262.87
2019-04-29T23:00:15.174Z,99262.75
2019-04-29T23:02:48.816Z,99255.95
2019-04-29T23:05:23.604Z,99255.95
2019-04-29T23:07:57.046Z,99256.45
2019-04-29T23:10:29.517Z,99257.09
2019-04-29T23:13:01.855Z,99255.53
2019-04-29T23:15:35.740Z,99255.78
2019-04-29T23:18:08.458Z,99256.86
2019-04-29T23:20:59.594Z,99248.16
2019-04-29T23:23:46.453Z,99241.06
2019-04-29T23:26:18.748Z,99241.06
2019-04-29T23:28:51.284Z,99244.84
2019-04-29T23:31:27.130Z,99208.13
2019-04-29T23:33:57.782Z,99237.28
2019-04-29T23:36:31.319Z,99237.28
2019-04-29T23:39:05.006Z,99211.09
2019-04-29T23:41:37.806Z,99211.09
2019-04-29T23:44:10.449Z,99236.20
2019-04-29T23:46:43.046Z,99231.24
2019-04-29T23:49:15.510Z,99223.50
2019-04-29T23:51:48.293Z,99223.61
2019-04-29T23:54:21.340Z,99219.66
2019-04-29T23:56:57.869Z,99199.84
2019-04-29T23:59:32.302Z,99199.84
